Time;durP1;ratioP1;P1;durP2;ratioP2;P2;SDS_P1;SDS_P2;PMS_P1;PMS_P2;Temp;Humidity;BMP_temperature;BMP_pressure;BME280_temperature;BME280_humidity;BME280_pressure;Samples;Min_cycle;Max_cycle;Signal;HPM_P1;HPM_P2
2022/09/01 00:00:22;;;;;;;7.25;6.00;;;17.00;99.90;;;;;;4795230;30;20198;-70
2022/09/01 00:02:51;;;;;;;7.68;6.22;;;17.00;99.90;;;;;;4789257;30;20201;-71
2022/09/01 00:05:20;;;;;;;7.32;6.10;;;17.00;99.90;;;;;;4787805;30;20208;-71
2022/09/01 00:07:49;;;;;;;8.63;5.90;;;17.00;99.90;;;;;;4788415;30;20237;-71
2022/09/01 00:10:17;;;;;;;7.20;5.90;;;16.90;99.90;;;;;;4787231;30;20201;-71
2022/09/01 00:12:46;;;;;;;9.57;6.47;;;16.90;99.90;;;;;;4787204;30;20232;-71
2022/09/01 00:15:16;;;;;;;6.32;5.68;;;16.90;99.90;;;;;;4787185;30;20212;-71
2022/09/01 00:17:49;;;;;;;6.57;5.70;;;16.90;99.90;;;;;;4790458;30;20235;-72
2022/09/01 00:20:18;;;;;;;6.78;5.97;;;16.90;99.90;;;;;;4797436;30;20218;-71
2022/09/01 00:22:48;;;;;;;9.40;5.57;;;16.80;99.90;;;;;;4795725;30;20189;-71
2022/09/01 00:25:18;;;;;;;10.25;5.82;;;16.80;99.90;;;;;;4795209;30;20208;-72
2022/09/01 00:27:48;;;;;;;8.45;5.95;;;16.80;99.90;;;;;;4795103;30;20239;-71
2022/09/01 00:30:17;;;;;;;8.00;6.32;;;16.80;99.90;;;;;;4793481;30;20668;-72
2022/09/01 00:32:46;;;;;;;7.55;6.53;;;16.80;99.90;;;;;;4804336;29;20220;-70
2022/09/01 00:35:18;;;;;;;7.82;6.20;;;16.80;99.90;;;;;;4787810;30;20213;-70
2022/09/01 00:37:47;;;;;;;7.40;6.50;;;16.80;99.90;;;;;;4800947;29;20225;-70
2022/09/01 00:40:18;;;;;;;9.45;6.75;;;16.80;99.90;;;;;;4787072;30;20213;-69
2022/09/01 00:42:48;;;;;;;8.90;6.82;;;16.80;99.90;;;;;;4789133;30;20189;-73
2022/09/01 00:45:18;;;;;;;6.63;6.00;;;16.80;99.90;;;;;;4807668;29;20661;-73
2022/09/01 00:47:49;;;;;;;10.23;6.68;;;16.80;99.90;;;;;;4793537;30;20681;-72
2022/09/01 00:50:21;;;;;;;8.40;6.60;;;16.80;99.90;;;;;;4806971;29;20653;-72
2022/09/01 00:52:52;;;;;;;9.38;7.72;;;16.80;99.90;;;;;;4796121;30;20267;-72
2022/09/01 00:55:25;;;;;;;42.15;29.05;;;16.80;99.90;;;;;;4796818;30;20205;-72
2022/09/01 00:57:54;;;;;;;125.68;83.70;;;16.90;99.90;;;;;;4796809;30;20229;-70
2022/09/01 01:00:27;;;;;;;103.07;65.28;;;16.90;99.90;;;;;;4790566;30;20652;-70
2022/09/01 01:02:57;;;;;;;60.70;41.50;;;16.90;99.90;;;;;;4790447;30;20193;-70
2022/09/01 01:05:33;;;;;;;53.80;33.83;;;16.90;99.90;;;;;;4790968;29;20217;-71
2022/09/01 01:08:07;;;;;;;38.83;25.98;;;16.90;99.90;;;;;;4790259;30;20229;-71
2022/09/01 01:10:40;;;;;;;40.30;27.27;;;16.90;99.90;;;;;;4790141;30;20679;-70
2022/09/01 01:13:12;;;;;;;26.08;18.67;;;16.90;99.90;;;;;;4804169;29;20214;-71
2022/09/01 01:15:43;;;;;;;11.38;9.13;;;16.80;99.90;;;;;;4791116;30;20201;-71
2022/09/01 01:18:13;;;;;;;9.52;7.80;;;16.80;99.90;;;;;;4789981;30;20248;-71
2022/09/01 01:23:40;;;;;;;8.13;6.35;;;16.80;99.90;;;;;;4789996;30;20568;-70
2022/09/01 01:26:11;;;;;;;6.90;6.20;;;16.90;99.90;;;;;;4787158;30;20666;-69
2022/09/01 01:28:44;;;;;;;9.02;6.65;;;16.80;99.90;;;;;;4774065;30;20229;-70
2022/09/01 01:31:16;;;;;;;8.13;6.35;;;16.80;99.90;;;;;;4775571;30;20571;-71
2022/09/01 01:33:50;;;;;;;8.52;6.10;;;16.70;99.90;;;;;;4777253;30;20212;-70
2022/09/01 01:36:28;;;;;;;7.30;6.20;;;16.70;99.90;;;;;;4792778;30;20204;-70
2022/09/01 01:39:02;;;;;;;8.23;6.47;;;16.70;99.90;;;;;;4777307;30;20233;-70
2022/09/01 01:41:34;;;;;;;6.60;5.85;;;16.70;99.90;;;;;;4775402;30;20221;-70
2022/09/01 01:44:04;;;;;;;8.45;5.88;;;16.70;99.90;;;;;;4797645;29;20213;-72
2022/09/01 01:46:34;;;;;;;6.63;5.70;;;16.60;99.90;;;;;;4771319;30;20277;-72
2022/09/01 01:49:04;;;;;;;6.60;5.80;;;16.60;99.90;;;;;;4771093;30;20242;-72
2022/09/01 01:51:33;;;;;;;7.85;6.57;;;16.60;99.90;;;;;;4770897;30;20218;-72
2022/09/01 01:54:04;;;;;;;6.13;5.45;;;16.50;99.90;;;;;;4770441;30;20586;-72
2022/09/01 01:56:38;;;;;;;7.63;5.80;;;16.50;99.90;;;;;;4771425;30;20224;-73
2022/09/01 01:59:14;;;;;;;7.82;6.00;;;16.40;99.90;;;;;;4774596;30;20229;-72
2022/09/01 02:01:49;;;;;;;7.50;5.85;;;16.40;99.90;;;;;;4774089;30;20213;-73
2022/09/01 02:04:20;;;;;;;7.47;5.85;;;16.30;99.90;;;;;;4778533;30;20214;-70
2022/09/01 02:06:50;;;;;;;6.70;6.00;;;16.30;99.90;;;;;;4776889;30;20198;-70
2022/09/01 02:09:22;;;;;;;7.80;6.40;;;16.30;99.90;;;;;;4778599;30;20245;-72
2022/09/01 02:11:55;;;;;;;6.85;6.13;;;16.20;99.90;;;;;;4773607;30;20218;-69
2022/09/01 02:14:25;;;;;;;8.77;5.82;;;16.20;99.90;;;;;;4771546;30;20665;-71
2022/09/01 02:16:54;;;;;;;7.30;6.38;;;16.20;99.90;;;;;;4773598;30;20579;-71
2022/09/01 02:19:23;;;;;;;8.43;6.10;;;16.10;99.90;;;;;;4776942;30;20329;-71
2022/09/01 02:21:55;;;;;;;8.38;6.07;;;16.10;99.90;;;;;;4808925;29;20232;-71
2022/09/01 02:24:25;;;;;;;7.38;6.65;;;16.10;99.90;;;;;;4794690;30;20236;-69
2022/09/01 02:26:59;;;;;;;8.98;5.68;;;16.00;99.90;;;;;;4792361;29;20209;-71
2022/09/01 02:29:30;;;;;;;7.13;5.93;;;16.00;99.90;;;;;;4792054;30;20604;-73
2022/09/01 02:32:07;;;;;;;6.78;6.00;;;16.00;99.90;;;;;;4796541;30;20224;-73
2022/09/01 02:34:38;;;;;;;6.60;5.68;;;16.00;99.90;;;;;;4794200;30;20205;-69
2022/09/01 02:37:07;;;;;;;7.38;6.22;;;15.90;99.90;;;;;;4794415;30;20229;-72
2022/09/01 02:39:36;;;;;;;10.00;7.80;;;15.90;99.90;;;;;;4793384;30;20248;-71
2022/09/01 02:42:07;;;;;;;7.60;6.80;;;15.80;99.90;;;;;;4808625;29;20213;-71
2022/09/01 02:44:36;;;;;;;10.18;8.07;;;15.80;99.90;;;;;;4793012;30;20220;-72
2022/09/01 02:47:09;;;;;;;7.15;6.32;;;15.80;99.90;;;;;;4795137;30;20237;-71
2022/09/01 02:49:39;;;;;;;8.43;6.25;;;15.70;99.90;;;;;;4810205;29;20237;-70
2022/09/01 02:52:09;;;;;;;6.93;5.80;;;15.70;99.90;;;;;;4791695;29;20690;-71
2022/09/01 02:54:38;;;;;;;7.00;6.30;;;15.60;99.90;;;;;;4793764;30;20685;-71
2022/09/01 02:57:09;;;;;;;7.07;6.05;;;15.60;99.90;;;;;;4810764;29;20240;-71
2022/09/01 02:59:40;;;;;;;8.05;6.25;;;15.50;99.90;;;;;;4788751;30;20217;-70
2022/09/01 03:02:11;;;;;;;6.70;6.00;;;15.50;99.90;;;;;;4786547;30;20575;-72
2022/09/01 03:04:40;;;;;;;7.30;6.07;;;15.40;99.90;;;;;;4787432;29;20221;-71
2022/09/01 03:07:12;;;;;;;6.40;5.80;;;15.40;99.90;;;;;;4786512;30;20759;-70
2022/09/01 03:09:42;;;;;;;7.78;6.07;;;15.40;99.90;;;;;;4786629;30;20241;-70
2022/09/01 03:12:12;;;;;;;7.75;6.55;;;15.40;99.90;;;;;;4787516;29;20216;-69
2022/09/01 03:14:40;;;;;;;7.07;5.93;;;15.40;99.90;;;;;;4801225;29;20216;-69
2022/09/01 03:17:10;;;;;;;7.75;6.47;;;15.30;99.90;;;;;;4787908;30;20220;-68
2022/09/01 03:19:44;;;;;;;9.55;6.97;;;15.30;99.90;;;;;;4786422;30;20221;-69
2022/09/01 03:22:12;;;;;;;8.38;6.50;;;15.30;99.90;;;;;;4787987;30;20197;-68
2022/09/01 03:24:42;;;;;;;8.25;6.20;;;15.30;99.90;;;;;;4801753;29;20201;-69
2022/09/01 03:27:12;;;;;;;7.78;6.50;;;15.20;99.90;;;;;;4801682;29;20217;-70
2022/09/01 03:29:41;;;;;;;6.80;5.90;;;15.30;99.90;;;;;;4801642;29;20727;-68
2022/09/01 03:32:10;;;;;;;8.27;6.47;;;15.20;99.90;;;;;;4801032;29;20209;-69
2022/09/01 03:34:39;;;;;;;6.63;6.03;;;15.20;99.90;;;;;;4787701;30;20216;-69
2022/09/01 03:37:08;;;;;;;7.93;6.43;;;15.20;99.90;;;;;;4801545;29;20224;-69
2022/09/01 03:39:37;;;;;;;7.82;5.90;;;15.20;99.90;;;;;;4786569;30;20216;-69
2022/09/01 03:42:09;;;;;;;6.95;6.25;;;15.10;99.90;;;;;;4787638;30;20657;-69
2022/09/01 03:44:43;;;;;;;10.25;6.63;;;15.10;99.90;;;;;;4786597;30;20200;-70
2022/09/01 03:47:15;;;;;;;7.97;6.68;;;15.00;99.90;;;;;;4786543;30;20571;-69
2022/09/01 03:49:46;;;;;;;8.18;6.50;;;15.00;99.90;;;;;;4801325;29;20624;-69
2022/09/01 03:52:16;;;;;;;8.23;6.82;;;15.00;99.90;;;;;;4786614;30;20565;-69
2022/09/01 03:54:45;;;;;;;9.35;8.00;;;15.00;99.90;;;;;;4786540;30;20581;-69
2022/09/01 03:57:13;;;;;;;8.90;7.25;;;15.00;99.90;;;;;;4786255;30;20221;-69
2022/09/01 03:59:45;;;;;;;9.35;7.85;;;15.00;99.90;;;;;;4786259;30;20209;-69
2022/09/01 04:02:15;;;;;;;9.20;7.40;;;14.90;99.90;;;;;;4801296;29;20748;-69
2022/09/01 04:04:44;;;;;;;8.43;7.53;;;15.00;99.90;;;;;;4787389;30;20213;-69
2022/09/01 04:07:13;;;;;;;10.27;7.78;;;14.90;99.90;;;;;;4787264;30;20216;-69
2022/09/01 04:09:47;;;;;;;7.93;7.13;;;14.90;99.90;;;;;;4801152;29;20221;-69
2022/09/01 04:12:16;;;;;;;8.07;7.20;;;14.80;99.90;;;;;;4801244;29;20213;-69
2022/09/01 04:14:50;;;;;;;8.48;7.55;;;14.80;99.90;;;;;;4801340;29;20212;-69
2022/09/01 04:20:08;;;;;;;8.43;7.10;;;14.70;99.90;;;;;;4786143;30;20201;-69
2022/09/01 04:22:37;;;;;;;6.85;6.15;;;14.70;99.90;;;;;;4801004;29;20204;-70
2022/09/01 04:25:07;;;;;;;6.50;5.70;;;14.70;99.90;;;;;;4787213;29;20235;-69
2022/09/01 04:27:39;;;;;;;6.18;5.57;;;14.60;99.90;;;;;;4803860;29;20559;-69
2022/09/01 04:30:10;;;;;;;6.13;4.90;;;14.60;99.90;;;;;;4789602;30;20606;-69
2022/09/01 04:32:45;;;;;;;6.50;5.90;;;14.60;99.90;;;;;;4789724;30;20668;-69
2022/09/01 04:35:15;;;;;;;6.65;5.35;;;14.60;99.90;;;;;;4789812;30;20216;-69
2022/09/01 04:37:46;;;;;;;6.25;5.65;;;14.50;99.90;;;;;;4789571;30;20584;-69
2022/09/01 04:40:16;;;;;;;7.50;6.35;;;14.50;99.90;;;;;;4789615;30;20209;-69
2022/09/01 04:42:47;;;;;;;7.10;6.40;;;14.50;99.90;;;;;;4789420;30;20583;-70
2022/09/01 04:45:23;;;;;;;7.68;6.78;;;14.50;99.90;;;;;;4789478;30;20205;-67
2022/09/01 04:47:54;;;;;;;8.98;7.30;;;14.40;99.90;;;;;;4789413;30;20220;-69
2022/09/01 04:50:26;;;;;;;9.40;6.97;;;14.40;99.90;;;;;;4789360;30;20228;-68
2022/09/01 04:53:17;;;;;;;8.88;7.00;;;14.40;99.90;;;;;;4790121;30;20221;-67
2022/09/01 04:55:48;;;;;;;8.77;6.70;;;14.40;99.90;;;;;;4804344;29;20680;-71
2022/09/01 04:58:20;;;;;;;9.45;6.97;;;14.40;99.90;;;;;;4804260;29;20231;-68
2022/09/01 05:00:54;;;;;;;8.13;7.25;;;14.30;99.90;;;;;;4790566;30;20568;-68
2022/09/01 05:03:24;;;;;;;9.70;6.60;;;14.30;99.90;;;;;;4790408;30;20189;-68
2022/09/01 05:06:02;;;;;;;7.25;6.22;;;14.30;99.90;;;;;;4804099;29;20192;-68
2022/09/01 05:08:34;;;;;;;8.70;5.57;;;14.40;99.90;;;;;;4804147;29;20225;-70
2022/09/01 05:11:08;;;;;;;6.35;5.72;;;14.40;99.90;;;;;;4788934;30;20225;-69
2022/09/01 05:13:46;;;;;;;5.53;5.03;;;14.50;99.90;;;;;;4789076;30;20185;-69
2022/09/01 05:16:20;;;;;;;6.28;5.55;;;14.50;99.90;;;;;;4790099;30;20208;-69
2022/09/01 05:18:55;;;;;;;6.05;5.53;;;14.50;99.90;;;;;;4788890;30;20224;-68
2022/09/01 05:21:28;;;;;;;6.20;5.60;;;14.60;99.90;;;;;;4788964;30;20198;-70
2022/09/01 05:24:00;;;;;;;6.07;5.47;;;14.60;99.90;;;;;;4803858;29;20213;-69
2022/09/01 05:26:33;;;;;;;6.28;5.68;;;14.60;99.90;;;;;;4803765;29;20193;-69
2022/09/01 05:29:09;;;;;;;6.85;5.93;;;14.60;99.90;;;;;;4803735;29;20225;-67
2022/09/01 05:31:40;;;;;;;5.93;5.25;;;14.60;99.90;;;;;;4789761;30;20239;-68
2022/09/01 05:34:10;;;;;;;8.13;5.75;;;14.60;99.90;;;;;;4803670;29;20190;-68
2022/09/01 05:36:44;;;;;;;7.32;6.63;;;14.60;99.90;;;;;;4803602;29;20572;-69
2022/09/01 05:39:13;;;;;;;7.60;6.90;;;14.70;99.90;;;;;;4789654;30;20587;-68
2022/09/01 05:41:42;;;;;;;7.93;7.13;;;14.70;99.90;;;;;;4803722;29;20657;-70
2022/09/01 05:44:14;;;;;;;8.10;7.18;;;14.70;99.90;;;;;;4788536;30;20209;-70
2022/09/01 05:46:45;;;;;;;9.20;7.80;;;14.70;99.90;;;;;;4788655;30;20193;-68
2022/09/01 05:49:15;;;;;;;8.10;7.30;;;14.70;99.90;;;;;;4773886;30;20189;-69
2022/09/01 05:51:48;;;;;;;9.32;8.02;;;14.70;99.90;;;;;;4788370;30;20229;-69
2022/09/01 05:54:24;;;;;;;10.90;7.75;;;14.80;99.90;;;;;;4803370;29;20197;-69
2022/09/01 05:56:54;;;;;;;10.63;7.90;;;14.80;99.90;;;;;;4789353;30;20196;-69
2022/09/01 05:59:30;;;;;;;10.20;7.85;;;14.90;99.90;;;;;;4788217;30;20200;-69
2022/09/01 06:02:07;;;;;;;8.20;7.38;;;14.90;99.90;;;;;;4788222;30;20193;-69
2022/09/01 06:04:42;;;;;;;9.05;8.15;;;15.00;99.90;;;;;;4788191;30;20746;-69
2022/09/01 06:07:17;;;;;;;10.23;8.23;;;15.00;99.90;;;;;;4803093;29;20684;-68
2022/09/01 06:09:55;;;;;;;10.77;8.57;;;15.10;99.90;;;;;;4803159;29;20297;-68
2022/09/01 06:12:26;;;;;;;8.25;7.55;;;15.10;99.90;;;;;;4787964;30;20229;-68
2022/09/01 06:14:57;;;;;;;10.23;8.43;;;15.20;99.90;;;;;;4803092;29;20197;-68
2022/09/01 06:17:29;;;;;;;9.90;8.88;;;15.30;99.90;;;;;;4802892;29;20729;-69
2022/09/01 06:20:09;;;;;;;9.32;8.25;;;15.40;99.90;;;;;;4787929;30;20200;-69
2022/09/01 06:22:40;;;;;;;8.65;7.75;;;15.40;99.90;;;;;;4787845;30;20209;-69
2022/09/01 06:25:10;;;;;;;9.35;8.10;;;15.50;99.90;;;;;;4802701;29;20201;-69
2022/09/01 06:27:43;;;;;;;9.13;8.23;;;15.60;99.90;;;;;;4802733;29;20224;-70
2022/09/01 06:30:15;;;;;;;9.45;7.93;;;15.60;99.90;;;;;;4801924;29;20217;-69
2022/09/01 06:33:01;;;;;;;10.02;7.50;;;15.70;99.90;;;;;;4802638;29;20224;-70
2022/09/01 06:35:33;;;;;;;8.95;7.78;;;15.80;99.90;;;;;;4787716;30;20194;-69
2022/09/01 06:38:03;;;;;;;9.88;8.32;;;15.80;99.90;;;;;;4802824;29;20248;-68
2022/09/01 06:40:42;;;;;;;9.55;7.72;;;15.90;99.90;;;;;;4787512;30;20190;-69
2022/09/01 06:43:14;;;;;;;9.73;8.63;;;16.00;99.90;;;;;;4802573;29;20571;-69
2022/09/01 06:45:53;;;;;;;12.38;8.88;;;16.10;99.90;;;;;;4802551;29;20555;-69
2022/09/01 06:48:25;;;;;;;8.88;7.97;;;16.20;99.90;;;;;;4788074;29;20233;-69
2022/09/01 06:51:01;;;;;;;10.57;7.95;;;16.20;99.90;;;;;;4802123;29;20189;-69
2022/09/01 06:53:55;;;;;;;7.78;6.97;;;16.30;99.90;;;;;;4788456;30;20193;-70
2022/09/01 06:56:30;;;;;;;8.05;6.55;;;16.40;99.90;;;;;;4787299;30;20653;-69
2022/09/01 06:59:06;;;;;;;8.65;6.60;;;16.50;99.90;;;;;;4788308;30;20574;-70
2022/09/01 07:01:38;;;;;;;7.00;5.82;;;16.60;99.90;;;;;;4787001;30;20201;-68
2022/09/01 07:04:09;;;;;;;10.63;6.07;;;16.60;99.90;;;;;;4787192;30;20205;-69
2022/09/01 07:06:50;;;;;;;7.35;6.30;;;16.70;99.90;;;;;;4802075;29;20212;-68
2022/09/01 07:09:48;;;;;;;9.57;6.53;;;16.80;99.90;;;;;;4760149;29;20684;-69
2022/09/01 07:12:45;;;;;;;11.43;6.47;;;16.90;99.90;;;;;;4786984;30;20232;-69
2022/09/01 07:15:34;;;;;;;7.40;5.30;;;17.10;99.90;;;;;;4786918;30;20205;-69
2022/09/01 07:18:25;;;;;;;9.23;5.15;;;17.30;99.90;;;;;;4801755;29;20221;-69
2022/09/01 07:20:56;;;;;;;8.10;5.28;;;17.40;99.90;;;;;;4788109;30;20189;-69
2022/09/01 07:23:47;;;;;;;7.38;4.97;;;17.50;99.90;;;;;;4786780;30;20213;-70
2022/09/01 07:26:36;;;;;;;5.38;4.85;;;17.50;99.90;;;;;;4788020;30;20202;-70
2022/09/01 07:29:15;;;;;;;5.57;4.82;;;17.60;99.90;;;;;;4786878;30;20561;-69
2022/09/01 07:31:44;;;;;;;9.48;4.88;;;17.70;99.90;;;;;;4801660;29;20200;-69
2022/09/01 07:34:17;;;;;;;7.80;5.32;;;17.90;99.90;;;;;;4786877;30;20194;-69
2022/09/01 07:37:10;;;;;;;7.82;5.40;;;17.90;99.90;;;;;;4801599;29;20225;-69
2022/09/01 07:39:59;;;;;;;7.60;4.93;;;18.00;99.90;;;;;;4801697;29;20201;-70
2022/09/01 07:42:48;;;;;;;8.20;4.93;;;18.10;99.90;;;;;;4787660;30;20565;-69
2022/09/01 07:46:08;;;;;;;7.15;5.10;;;18.10;99.90;;;;;;4787541;30;20573;-70
2022/09/01 07:48:58;;;;;;;6.03;4.88;;;18.20;99.90;;;;;;4801369;29;20221;-68
2022/09/01 07:51:49;;;;;;;7.13;5.43;;;18.30;99.90;;;;;;4801546;29;21047;-69
2022/09/01 07:54:22;;;;;;;5.85;4.75;;;18.30;99.90;;;;;;4787498;30;20593;-68
2022/09/01 07:56:54;;;;;;;7.95;4.60;;;18.50;99.90;;;;;;4786284;30;20200;-69
2022/09/01 07:59:25;;;;;;;7.07;4.55;;;18.70;99.90;;;;;;4786365;30;20194;-68
2022/09/01 08:02:05;;;;;;;9.45;4.82;;;18.80;99.90;;;;;;4801184;29;20675;-70
2022/09/01 08:04:34;;;;;;;6.00;4.32;;;19.00;99.90;;;;;;4786301;30;20198;-69
2022/09/01 08:07:05;;;;;;;8.85;4.97;;;19.10;99.90;;;;;;4801270;29;20625;-70
2022/09/01 08:09:38;;;;;;;5.85;4.72;;;19.20;99.90;;;;;;4801248;29;20216;-68
2022/09/01 08:12:13;;;;;;;6.68;4.32;;;19.20;99.90;;;;;;4771445;30;20197;-69
2022/09/01 08:14:52;;;;;;;5.78;4.55;;;19.40;99.90;;;;;;4801139;29;20204;-70
2022/09/01 08:17:41;;;;;;;5.55;4.00;;;19.40;99.90;;;;;;4800956;29;20601;-70
2022/09/01 08:20:25;;;;;;;5.30;4.30;;;19.40;99.90;;;;;;4801103;29;20195;-71
2022/09/01 08:23:11;;;;;;;5.68;4.00;;;19.50;99.90;;;;;;4761152;30;20202;-70
2022/09/01 08:25:43;;;;;;;6.07;4.28;;;19.50;99.90;;;;;;4801020;29;20209;-68
2022/09/01 08:28:14;;;;;;;6.22;4.28;;;19.60;99.90;;;;;;4787253;30;20221;-70
2022/09/01 08:30:47;;;;;;;5.78;4.78;;;19.60;99.90;;;;;;4785902;30;20669;-69
2022/09/01 08:33:22;;;;;;;6.13;4.70;;;19.70;99.90;;;;;;4786011;30;20232;-69
2022/09/01 08:35:51;;;;;;;4.55;4.15;;;19.70;99.90;;;;;;4800973;29;20559;-69
2022/09/01 08:38:23;;;;;;;5.78;4.40;;;19.70;99.90;;;;;;4800932;29;20225;-69
2022/09/01 08:40:56;;;;;;;5.38;4.47;;;19.90;99.90;;;;;;4785926;30;20197;-69
2022/09/01 08:43:49;;;;;;;6.68;4.25;;;19.90;99.90;;;;;;4800914;29;20201;-70
2022/09/01 08:46:25;;;;;;;8.02;4.00;;;20.10;99.70;;;;;;4800963;29;20204;-69
2022/09/01 08:48:58;;;;;;;7.65;4.15;;;20.20;99.90;;;;;;4800885;29;20216;-69
2022/09/01 08:52:22;;;;;;;5.53;3.85;;;20.30;98.60;;;;;;4778737;29;20584;-68
2022/09/01 08:54:58;;;;;;;6.82;4.05;;;20.40;98.00;;;;;;4800816;29;20590;-68
2022/09/01 08:57:33;;;;;;;5.45;3.42;;;20.50;98.20;;;;;;4785717;30;20217;-68
2022/09/01 09:00:23;;;;;;;4.18;3.75;;;20.70;98.60;;;;;;4786861;30;20197;-68
2022/09/01 09:03:05;;;;;;;6.90;4.10;;;21.00;97.60;;;;;;4785779;30;20592;-68
2022/09/01 09:05:49;;;;;;;7.82;3.70;;;21.20;96.20;;;;;;4786886;30;20212;-68
2022/09/01 09:08:34;;;;;;;6.25;3.70;;;21.40;95.80;;;;;;4786788;30;20233;-69
2022/09/01 09:11:07;;;;;;;5.47;4.07;;;21.60;95.80;;;;;;4786808;30;20193;-69
2022/09/01 09:13:50;;;;;;;7.00;3.67;;;21.80;94.70;;;;;;4789189;29;20723;-69
2022/09/01 09:16:23;;;;;;;6.78;4.07;;;21.80;94.90;;;;;;4790148;30;20703;-69
2022/09/01 09:18:56;;;;;;;5.85;4.22;;;21.90;94.20;;;;;;4789922;30;20229;-70
2022/09/01 09:21:29;;;;;;;4.70;3.47;;;21.90;93.70;;;;;;4790189;30;20197;-69
2022/09/01 09:24:03;;;;;;;5.70;4.25;;;21.90;94.20;;;;;;4790005;30;20645;-68
2022/09/01 09:26:32;;;;;;;10.02;4.00;;;22.00;93.50;;;;;;4803893;29;20197;-68
2022/09/01 09:29:19;;;;;;;6.05;4.22;;;21.90;93.70;;;;;;4789852;30;20197;-69
2022/09/01 09:31:49;;;;;;;4.60;4.00;;;21.90;95.00;;;;;;4789870;30;20197;-68
2022/09/01 09:34:32;;;;;;;4.65;3.85;;;21.80;93.50;;;;;;4789735;30;20226;-71
2022/09/01 09:37:21;;;;;;;5.28;4.05;;;21.80;93.50;;;;;;4789693;30;20193;-71
2022/09/01 09:40:09;;;;;;;5.47;3.90;;;21.80;92.90;;;;;;4789760;30;20566;-71
2022/09/01 09:42:39;;;;;;;6.18;4.10;;;21.70;92.60;;;;;;4789733;30;20201;-68
2022/09/01 09:45:23;;;;;;;5.18;4.03;;;21.60;93.10;;;;;;4789534;30;20209;-68
2022/09/01 09:47:53;;;;;;;6.05;4.57;;;21.70;92.80;;;;;;4789500;30;20621;-68
2022/09/01 09:50:25;;;;;;;5.00;3.30;;;21.70;92.90;;;;;;4789672;30;20567;-68
2022/09/01 09:53:14;;;;;;;5.38;3.85;;;21.80;93.00;;;;;;4789549;30;20202;-68
2022/09/01 09:55:54;;;;;;;8.23;3.92;;;21.80;92.90;;;;;;4789448;30;20221;-68
2022/09/01 09:58:27;;;;;;;5.55;4.00;;;21.90;93.00;;;;;;4789398;30;20220;-68
2022/09/01 10:01:05;;;;;;;4.60;3.67;;;21.90;92.20;;;;;;4789516;30;20193;-69
2022/09/01 10:03:37;;;;;;;5.38;3.85;;;21.90;91.70;;;;;;4789431;30;20224;-69
2022/09/01 10:06:12;;;;;;;6.50;4.00;;;21.70;91.50;;;;;;4789252;30;20661;-67
2022/09/01 10:08:46;;;;;;;4.72;3.83;;;21.50;92.00;;;;;;4789129;30;20222;-68
2022/09/01 10:11:28;;;;;;;6.20;3.25;;;21.40;92.40;;;;;;4789241;30;20201;-68
2022/09/01 10:14:08;;;;;;;6.53;3.63;;;21.40;92.80;;;;;;4789015;30;20216;-67
2022/09/01 10:16:43;;;;;;;6.65;4.18;;;21.40;92.70;;;;;;4789093;30;20660;-68
2022/09/01 10:19:15;;;;;;;7.43;3.72;;;21.40;92.60;;;;;;4789077;30;20201;-69
2022/09/01 10:21:45;;;;;;;4.95;3.47;;;21.50;92.40;;;;;;4789040;30;20208;-69
2022/09/01 10:24:24;;;;;;;4.72;3.63;;;21.40;92.80;;;;;;4788946;29;20545;-69
2022/09/01 10:27:01;;;;;;;5.80;3.78;;;21.50;92.50;;;;;;4789106;30;20218;-68
2022/09/01 10:29:32;;;;;;;3.50;3.20;;;21.60;92.30;;;;;;4788770;30;20190;-68
2022/09/01 10:32:15;;;;;;;7.38;4.13;;;21.60;92.10;;;;;;4788831;30;20204;-69
2022/09/01 10:35:06;;;;;;;4.30;3.90;;;21.50;92.10;;;;;;4770745;30;20236;-70
2022/09/01 10:37:35;;;;;;;4.43;3.50;;;21.60;92.80;;;;;;4785107;30;20236;-70
2022/09/01 10:40:18;;;;;;;4.03;3.63;;;21.60;92.30;;;;;;4788620;30;20214;-70
2022/09/01 10:42:53;;;;;;;5.10;3.63;;;21.80;91.40;;;;;;4788700;30;20201;-68
2022/09/01 10:45:33;;;;;;;4.82;3.40;;;22.00;91.30;;;;;;4788583;30;20221;-69
2022/09/01 10:48:31;;;;;;;3.67;3.13;;;22.20;91.70;;;;;;4788335;30;20233;-67
2022/09/01 10:51:44;;;;;;;5.75;3.63;;;22.30;91.10;;;;;;4788433;30;20211;-69
2022/09/01 10:54:53;;;;;;;5.63;3.50;;;22.60;90.90;;;;;;4785309;30;20605;-70
2022/09/01 10:57:40;;;;;;;3.85;3.03;;;23.20;90.90;;;;;;4788225;30;20233;-68
2022/09/01 11:00:47;;;;;;;4.53;3.15;;;23.70;89.10;;;;;;4788446;30;20649;-68
2022/09/01 11:03:55;;;;;;;3.25;2.95;;;23.90;87.60;;;;;;4788198;30;20201;-69
2022/09/01 11:07:00;;;;;;;4.57;2.95;;;23.80;89.80;;;;;;4788156;30;20197;-67
2022/09/01 11:10:21;;;;;;;3.33;2.70;;;23.80;88.20;;;;;;4788161;30;20201;-70
2022/09/01 11:13:26;;;;;;;4.25;3.10;;;23.90;90.10;;;;;;4786989;30;20206;-71
2022/09/01 11:15:55;;;;;;;5.65;3.08;;;24.10;85.30;;;;;;4788035;30;20232;-70
2022/09/01 11:18:30;;;;;;;5.10;3.40;;;24.00;85.70;;;;;;4786717;30;20225;-70
2022/09/01 11:24:32;;;;;;;5.47;3.00;;;24.00;87.70;;;;;;5110509;27;20557;-69
2022/09/01 11:27:00;;;;;;;4.28;3.10;;;24.30;85.00;;;;;;5110111;28;20189;-68
2022/09/01 11:29:53;;;;;;;3.28;2.75;;;24.40;86.80;;;;;;5110210;28;20190;-70
2022/09/01 11:32:31;;;;;;;3.53;2.55;;;24.40;85.10;;;;;;5110246;28;20192;-69
2022/09/01 11:35:03;;;;;;;3.45;2.88;;;24.30;85.50;;;;;;5110093;28;20178;-69
2022/09/01 11:37:33;;;;;;;3.85;2.90;;;24.10;85.30;;;;;;5109981;28;20236;-70
2022/09/01 11:40:07;;;;;;;3.90;2.95;;;24.00;86.60;;;;;;5110019;28;20212;-69
2022/09/01 11:42:42;;;;;;;4.22;3.20;;;24.00;83.00;;;;;;5109943;28;20208;-69
2022/09/01 11:45:17;;;;;;;4.97;2.60;;;24.00;81.80;;;;;;5110021;28;20185;-69
2022/09/01 11:47:52;;;;;;;5.80;2.60;;;23.90;82.00;;;;;;5109749;28;20221;-69
2022/09/01 11:50:23;;;;;;;2.65;2.45;;;23.80;82.20;;;;;;5109822;28;20271;-69
2022/09/01 11:52:54;;;;;;;5.18;3.25;;;23.70;82.90;;;;;;5109781;28;20647;-69
2022/09/01 11:55:32;;;;;;;3.15;2.78;;;23.80;83.50;;;;;;5109791;28;20632;-69
2022/09/01 11:58:01;;;;;;;4.63;3.05;;;23.60;82.50;;;;;;5109682;28;20213;-69
2022/09/01 12:00:37;;;;;;;4.38;3.25;;;23.50;82.50;;;;;;5109617;28;20186;-69
2022/09/01 12:03:20;;;;;;;4.47;3.17;;;23.30;82.60;;;;;;5109548;28;20718;-69
2022/09/01 12:05:58;;;;;;;4.75;2.83;;;23.30;83.50;;;;;;5109487;28;20185;-69
2022/09/01 12:08:29;;;;;;;4.85;3.10;;;23.20;83.50;;;;;;5109537;28;20568;-70
2022/09/01 12:11:06;;;;;;;4.80;2.97;;;23.20;83.90;;;;;;5109533;28;20651;-69
2022/09/01 12:13:36;;;;;;;3.03;2.72;;;23.20;82.40;;;;;;5109487;28;20189;-68
2022/09/01 12:16:07;;;;;;;4.97;2.90;;;23.30;82.70;;;;;;5109388;28;20190;-69
2022/09/01 12:18:54;;;;;;;5.60;3.20;;;23.40;83.50;;;;;;5109234;28;20574;-69
2022/09/01 12:21:25;;;;;;;4.15;3.00;;;23.40;82.90;;;;;;5109266;28;20178;-70
2022/09/01 12:24:09;;;;;;;3.70;2.47;;;23.60;83.00;;;;;;5109214;28;20589;-70
2022/09/01 12:26:41;;;;;;;5.07;2.88;;;23.50;82.00;;;;;;5109260;28;20622;-69
2022/09/01 12:29:12;;;;;;;3.65;2.83;;;23.60;81.10;;;;;;5109055;28;20178;-68
2022/09/01 12:31:42;;;;;;;3.17;2.80;;;23.90;80.20;;;;;;5109033;28;20221;-69
2022/09/01 12:34:25;;;;;;;5.82;3.80;;;24.20;80.30;;;;;;5101247;28;20214;-69
2022/09/01 12:37:06;;;;;;;5.68;3.53;;;24.30;80.00;;;;;;5095410;28;20183;-69
2022/09/01 12:39:37;;;;;;;3.60;3.10;;;24.30;80.80;;;;;;5095465;28;20194;-69
2022/09/01 12:42:12;;;;;;;4.10;2.72;;;24.30;79.00;;;;;;5095360;28;20560;-69
2022/09/01 12:44:50;;;;;;;4.85;2.78;;;24.20;78.70;;;;;;5095150;28;20210;-69
2022/09/01 12:47:47;;;;;;;3.05;2.42;;;24.20;79.10;;;;;;5095187;28;20687;-69
2022/09/01 12:50:42;;;;;;;4.72;3.13;;;24.20;80.30;;;;;;5095148;28;20665;-69
2022/09/01 12:53:23;;;;;;;4.20;2.83;;;24.30;79.40;;;;;;5095057;28;20637;-70
2022/09/01 12:56:16;;;;;;;3.17;2.85;;;24.30;80.10;;;;;;5089837;28;20191;-69
2022/09/01 12:58:50;;;;;;;4.95;2.80;;;24.30;79.50;;;;;;5081308;28;20221;-69
2022/09/01 13:01:30;;;;;;;3.75;2.67;;;24.20;79.00;;;;;;5076855;28;20209;-69
2022/09/01 13:04:28;;;;;;;5.03;2.75;;;24.20;79.40;;;;;;5079380;28;20628;-70
2022/09/01 13:07:04;;;;;;;3.65;2.50;;;24.10;77.90;;;;;;5064016;28;20207;-70
2022/09/01 13:09:32;;;;;;;5.43;2.92;;;24.00;79.30;;;;;;5094792;28;20190;-68
2022/09/01 13:12:18;;;;;;;3.35;2.50;;;23.90;78.80;;;;;;5074719;28;20557;-69
2022/09/01 13:14:48;;;;;;;3.90;2.50;;;23.60;80.20;;;;;;5073961;28;20187;-69
2022/09/01 13:17:17;;;;;;;5.65;2.70;;;23.50;80.80;;;;;;5084866;28;20233;-69
2022/09/01 13:19:46;;;;;;;3.65;2.80;;;23.40;81.90;;;;;;5076580;28;20211;-70
2022/09/01 13:22:15;;;;;;;3.17;2.88;;;23.30;80.80;;;;;;5079010;28;20211;-70
2022/09/01 13:24:43;;;;;;;2.97;2.60;;;23.20;80.80;;;;;;5091842;28;20221;-69
2022/09/01 13:27:13;;;;;;;3.00;2.50;;;23.10;80.80;;;;;;5081730;28;20226;-70
2022/09/01 13:29:52;;;;;;;4.35;2.63;;;23.00;81.10;;;;;;5076203;28;20202;-70
2022/09/01 13:32:22;;;;;;;3.70;2.88;;;22.90;80.70;;;;;;5091265;28;20566;-70
2022/09/01 13:34:53;;;;;;;3.10;2.72;;;22.80;80.30;;;;;;5083086;28;20203;-70
2022/09/01 13:37:22;;;;;;;2.85;2.60;;;22.70;80.80;;;;;;5073955;28;20211;-71